DAAD

Bou Saada Airport

Algeria
METAR DAAD 210900Z 11003KT CAVOK 30/14 Q1017
Observed Flight Rules
Jun-21 @ 09:00 UTC (an hour ago) Visual Flight Rules
Wind Visibility Clouds
110° at 3 knots 10,000+ meters
  • Clear skies
Temperatures Readings
Current 30°C / 86°F
Dewpoint 14°C / 57°F
Humidity 38%
Altimeter 30.03" Hg
Pressure 1017 hPa
Elevation 461
METAR DAAD 210900Z 11003KT CAVOK 30/14 Q1017
Observed Flight Rules
Jun-21 @ 09:00 UTC
(an hour ago)
VFR
Wind Visibility
110° at 3 knots 10,000+ meters
Clouds
  • Clear skies
Temperature Dewpoint
30°C / 86°F 14°C / 57°F
Humidity Altimeter Pressure
38% 30.03" Hg 1017 hPa